Time;durP1;ratioP1;P1;durP2;ratioP2;P2;SDS_P1;SDS_P2;PMS_P1;PMS_P2;Temp;Humidity;BMP_temperature;BMP_pressure;BME280_temperature;BME280_humidity;BME280_pressure;Samples;Min_cycle;Max_cycle;Signal;HPM_P1;HPM_P2
2023/09/08 00:00:22;;;;;;;10.00;6.30;;;20.00;69.00;;;;;;5088284;28;20468;-77
2023/09/08 00:02:51;;;;;;;14.80;7.17;;;19.90;69.10;;;;;;5088279;28;20462;-78
2023/09/08 00:05:19;;;;;;;11.37;6.90;;;19.80;69.20;;;;;;5087896;28;20518;-79
2023/09/08 00:07:49;;;;;;;10.47;5.97;;;19.70;69.30;;;;;;5086084;28;20506;-79
2023/09/08 00:10:17;;;;;;;9.77;5.77;;;19.70;69.40;;;;;;5087725;28;20456;-78
2023/09/08 00:12:45;;;;;;;11.10;6.27;;;19.70;69.50;;;;;;5084915;28;20460;-76
2023/09/08 00:15:13;;;;;;;9.23;6.23;;;19.60;69.70;;;;;;5087950;28;20464;-79
2023/09/08 00:17:41;;;;;;;10.33;6.40;;;19.60;69.80;;;;;;5089257;28;20564;-78
2023/09/08 00:20:10;;;;;;;9.23;6.07;;;19.70;69.80;;;;;;5088325;28;20456;-79
2023/09/08 00:22:38;;;;;;;9.63;5.90;;;19.70;69.70;;;;;;5088471;28;20627;-78
2023/09/08 00:25:08;;;;;;;9.10;5.80;;;19.70;69.70;;;;;;5088866;28;20460;-78
2023/09/08 00:27:36;;;;;;;8.83;5.97;;;19.70;69.80;;;;;;5084241;28;20540;-79
2023/09/08 00:30:05;;;;;;;10.63;6.27;;;19.60;69.80;;;;;;5087361;28;20468;-79
2023/09/08 00:32:33;;;;;;;10.50;5.83;;;19.60;69.90;;;;;;5106023;28;20985;-78
2023/09/08 00:35:01;;;;;;;8.40;5.70;;;19.60;69.90;;;;;;5086455;28;20510;-79
2023/09/08 00:37:29;;;;;;;11.07;5.87;;;19.60;70.00;;;;;;5109040;28;20474;-78
2023/09/08 00:39:57;;;;;;;11.40;6.03;;;19.60;69.90;;;;;;5110107;28;20978;-80
2023/09/08 00:42:26;;;;;;;9.47;5.80;;;19.60;69.90;;;;;;5089591;28;20471;-77
2023/09/08 00:44:54;;;;;;;9.80;6.50;;;19.50;69.90;;;;;;5108856;28;21292;-78
2023/09/08 00:47:22;;;;;;;13.60;6.60;;;19.50;70.00;;;;;;5089979;28;20456;-78
2023/09/08 00:49:51;;;;;;;9.80;6.50;;;19.50;70.10;;;;;;5091364;28;20470;-77
2023/09/08 00:52:19;;;;;;;9.70;5.90;;;19.40;70.10;;;;;;5088269;28;20522;-79
2023/09/08 00:54:47;;;;;;;10.83;6.47;;;19.40;70.10;;;;;;5093514;28;20467;-78
2023/09/08 00:57:15;;;;;;;10.27;6.20;;;19.40;70.10;;;;;;5112836;27;20941;-78
2023/09/08 00:59:45;;;;;;;11.70;6.80;;;19.30;70.20;;;;;;5089909;28;20460;-78
2023/09/08 01:02:13;;;;;;;10.60;7.00;;;19.30;70.30;;;;;;5106745;28;20522;-77
2023/09/08 01:04:43;;;;;;;12.50;7.73;;;19.30;70.40;;;;;;5106191;28;20571;-77
2023/09/08 01:07:11;;;;;;;12.53;7.53;;;19.30;70.40;;;;;;5104760;28;20470;-80
2023/09/08 01:09:41;;;;;;;8.33;5.70;;;19.30;70.50;;;;;;5090519;28;20523;-78
2023/09/08 01:12:09;;;;;;;11.20;6.40;;;19.30;70.50;;;;;;5107405;28;20483;-80
2023/09/08 01:14:37;;;;;;;11.10;6.73;;;19.20;70.40;;;;;;5108384;28;20448;-79
2023/09/08 01:17:07;;;;;;;10.43;6.90;;;19.20;70.40;;;;;;5093373;28;20456;-80
2023/09/08 01:19:37;;;;;;;11.53;6.20;;;19.20;70.30;;;;;;5106169;28;20505;-78
2023/09/08 01:22:24;;;;;;;9.60;6.13;;;19.10;70.40;;;;;;5089515;28;20460;-81
2023/09/08 01:25:17;;;;;;;12.70;6.97;;;19.10;70.40;;;;;;5094975;28;20452;-81
2023/09/08 01:27:49;;;;;;;11.13;7.07;;;19.10;70.40;;;;;;5093267;28;20471;-78
2023/09/08 01:30:18;;;;;;;10.57;7.07;;;19.10;70.40;;;;;;5104581;28;20498;-80
2023/09/08 01:32:46;;;;;;;10.43;6.50;;;19.00;70.40;;;;;;5089235;28;20480;-78
2023/09/08 01:35:15;;;;;;;10.37;6.87;;;19.00;70.40;;;;;;5107482;28;21147;-78
2023/09/08 01:37:46;;;;;;;11.10;6.30;;;18.90;70.50;;;;;;5092948;28;20458;-77
2023/09/08 01:40:15;;;;;;;9.47;6.23;;;18.90;70.50;;;;;;5108498;28;20455;-78
2023/09/08 01:42:43;;;;;;;12.20;6.40;;;18.80;70.50;;;;;;5101721;28;20469;-78
2023/09/08 01:45:11;;;;;;;11.70;7.00;;;18.80;70.60;;;;;;5089148;28;20467;-78
2023/09/08 01:47:39;;;;;;;11.20;6.97;;;18.70;70.60;;;;;;5107227;28;20458;-78
2023/09/08 01:50:08;;;;;;;9.93;5.93;;;18.60;70.60;;;;;;5107626;28;20463;-78
2023/09/08 01:52:36;;;;;;;9.13;5.60;;;18.60;70.70;;;;;;5106715;28;20475;-78
2023/09/08 01:55:16;;;;;;;12.90;6.70;;;18.50;70.90;;;;;;5089359;28;20476;-79
2023/09/08 01:57:44;;;;;;;10.30;6.37;;;18.60;71.00;;;;;;5087476;28;20472;-79
2023/09/08 02:00:12;;;;;;;11.00;6.17;;;18.60;71.00;;;;;;5088627;28;20456;-79
2023/09/08 02:02:41;;;;;;;14.47;6.37;;;18.60;71.00;;;;;;5105924;28;20552;-78
2023/09/08 02:05:10;;;;;;;10.40;6.30;;;18.60;71.00;;;;;;5086746;28;20464;-78
2023/09/08 02:07:38;;;;;;;10.00;7.00;;;18.60;70.90;;;;;;5088848;28;20497;-78
2023/09/08 02:10:07;;;;;;;13.30;7.20;;;18.60;70.90;;;;;;5107605;28;21127;-79
2023/09/08 02:12:37;;;;;;;10.40;6.80;;;18.50;70.90;;;;;;5089139;28;21252;-79
2023/09/08 02:15:06;;;;;;;10.70;7.03;;;18.50;70.90;;;;;;5089777;28;20475;-77
2023/09/08 02:17:34;;;;;;;9.50;6.63;;;18.40;70.90;;;;;;5090562;28;20460;-79
2023/09/08 02:20:03;;;;;;;9.63;6.50;;;18.40;70.90;;;;;;5093360;28;20865;-78
2023/09/08 02:22:31;;;;;;;10.43;6.40;;;18.40;71.00;;;;;;5091729;28;20455;-77
2023/09/08 02:24:59;;;;;;;11.50;6.20;;;18.30;71.10;;;;;;5093735;28;20872;-78
2023/09/08 02:27:27;;;;;;;10.00;6.87;;;18.20;71.20;;;;;;5112383;28;20578;-79
2023/09/08 02:29:57;;;;;;;15.80;7.37;;;18.20;71.30;;;;;;5096286;28;20459;-78
2023/09/08 02:32:25;;;;;;;10.30;6.63;;;18.20;71.30;;;;;;5074337;28;20504;-78
2023/09/08 02:34:53;;;;;;;11.77;7.20;;;18.20;71.20;;;;;;5073585;28;20453;-78
2023/09/08 02:37:21;;;;;;;12.27;7.20;;;18.10;71.40;;;;;;5069072;28;20548;-79
2023/09/08 02:39:50;;;;;;;11.30;6.90;;;18.10;71.50;;;;;;5077054;28;20444;-78
2023/09/08 02:42:19;;;;;;;14.47;7.80;;;18.10;71.60;;;;;;5072372;28;21077;-79
2023/09/08 02:44:46;;;;;;;8.87;6.33;;;18.10;71.70;;;;;;5075972;28;20503;-77
2023/09/08 02:47:16;;;;;;;9.87;6.80;;;18.10;71.80;;;;;;5094102;28;20547;-79
2023/09/08 02:49:44;;;;;;;13.10;6.33;;;18.10;71.80;;;;;;5075988;28;20540;-78
2023/09/08 02:52:12;;;;;;;10.00;6.40;;;18.10;71.70;;;;;;5081678;28;20480;-79
2023/09/08 02:54:40;;;;;;;13.23;6.80;;;18.10;71.60;;;;;;5073932;28;20510;-79
2023/09/08 02:57:08;;;;;;;14.00;7.53;;;18.10;71.60;;;;;;5091509;28;20471;-77
2023/09/08 02:59:37;;;;;;;13.47;7.30;;;18.00;71.70;;;;;;5071112;28;21041;-76
2023/09/08 03:02:05;;;;;;;9.57;6.37;;;18.00;71.70;;;;;;5087895;28;21002;-79
2023/09/08 03:04:35;;;;;;;9.20;7.00;;;18.00;71.80;;;;;;5106672;28;20461;-76
2023/09/08 03:07:04;;;;;;;16.00;7.47;;;18.00;71.80;;;;;;5107726;28;20489;-78
2023/09/08 03:09:32;;;;;;;13.60;6.90;;;18.00;71.70;;;;;;5089925;28;20516;-80
2023/09/08 03:12:04;;;;;;;14.87;6.80;;;18.00;71.60;;;;;;5104185;28;20872;-79
2023/09/08 03:14:32;;;;;;;9.77;6.90;;;18.00;71.50;;;;;;5093986;28;20523;-79
2023/09/08 03:17:00;;;;;;;10.67;6.80;;;17.90;71.50;;;;;;5096407;28;20526;-79
2023/09/08 03:19:28;;;;;;;11.10;7.50;;;17.90;71.50;;;;;;5087194;28;20954;-78
2023/09/08 03:21:57;;;;;;;10.07;6.17;;;17.80;71.50;;;;;;5088368;28;20536;-80
2023/09/08 03:24:26;;;;;;;10.00;7.93;;;17.70;71.50;;;;;;5089103;28;20564;-78
2023/09/08 03:26:55;;;;;;;10.57;7.10;;;17.70;71.70;;;;;;5089313;28;20989;-78
2023/09/08 03:29:23;;;;;;;15.30;8.17;;;17.60;71.60;;;;;;5090303;28;20517;-78
2023/09/08 03:31:52;;;;;;;14.90;6.77;;;17.50;71.70;;;;;;5107987;28;21253;-78
2023/09/08 03:34:21;;;;;;;12.20;6.63;;;17.50;71.90;;;;;;5110576;28;20965;-79
2023/09/08 03:36:50;;;;;;;10.63;6.20;;;17.50;72.10;;;;;;5094369;28;20455;-78
2023/09/08 03:39:19;;;;;;;11.30;7.40;;;17.50;72.20;;;;;;5110291;28;20535;-79
2023/09/08 03:41:47;;;;;;;12.50;6.90;;;17.60;72.20;;;;;;5095712;28;20496;-77
2023/09/08 03:44:15;;;;;;;13.20;8.00;;;17.60;72.20;;;;;;5094624;28;20544;-79
2023/09/08 03:46:43;;;;;;;11.80;7.37;;;17.60;72.20;;;;;;5093274;28;20464;-79
2023/09/08 03:49:11;;;;;;;11.50;6.83;;;17.60;72.20;;;;;;5107341;28;20513;-80
2023/09/08 03:51:40;;;;;;;10.40;6.77;;;17.60;72.30;;;;;;5111124;27;20479;-80
2023/09/08 03:54:08;;;;;;;10.40;6.60;;;17.60;72.30;;;;;;5088683;28;20993;-78
2023/09/08 03:56:37;;;;;;;12.77;7.20;;;17.50;72.20;;;;;;5110037;28;20539;-80
2023/09/08 03:59:05;;;;;;;11.67;7.87;;;17.50;72.20;;;;;;5109540;28;20467;-77
2023/09/08 04:01:33;;;;;;;12.37;7.10;;;17.40;72.20;;;;;;5093337;28;20460;-78
2023/09/08 04:04:01;;;;;;;9.00;6.27;;;17.40;72.30;;;;;;5092860;28;20467;-78
2023/09/08 04:06:29;;;;;;;10.40;6.53;;;17.40;72.30;;;;;;5092231;28;20899;-79
2023/09/08 04:08:57;;;;;;;12.27;7.90;;;17.40;72.30;;;;;;5091427;27;20531;-78
2023/09/08 04:11:26;;;;;;;13.97;8.50;;;17.40;72.40;;;;;;5107513;28;20456;-78
2023/09/08 04:13:55;;;;;;;10.93;7.07;;;17.40;72.20;;;;;;5108757;27;20483;-77
2023/09/08 04:16:23;;;;;;;12.47;8.00;;;17.40;72.30;;;;;;5105861;28;20448;-78
2023/09/08 04:18:51;;;;;;;10.87;7.00;;;17.40;72.40;;;;;;5109243;27;20466;-79
2023/09/08 04:21:23;;;;;;;13.03;7.60;;;17.40;72.50;;;;;;5095693;27;20459;-77
2023/09/08 04:23:51;;;;;;;10.20;7.03;;;17.40;72.40;;;;;;5109105;27;20459;-78
2023/09/08 04:26:19;;;;;;;11.63;7.10;;;17.40;72.40;;;;;;5090846;28;20464;-78
2023/09/08 04:28:47;;;;;;;10.60;6.33;;;17.50;72.40;;;;;;5106100;28;20452;-79
2023/09/08 04:31:17;;;;;;;9.83;6.97;;;17.50;72.40;;;;;;5086201;28;20475;-78
2023/09/08 04:33:46;;;;;;;9.17;6.77;;;17.50;72.10;;;;;;5090194;27;20475;-78
2023/09/08 04:36:15;;;;;;;12.53;7.03;;;17.40;72.00;;;;;;5086943;28;20467;-77
2023/09/08 04:38:44;;;;;;;14.80;7.73;;;17.40;71.90;;;;;;5101027;28;20452;-78
2023/09/08 04:41:12;;;;;;;11.63;7.20;;;17.30;72.00;;;;;;5087770;28;20464;-78
2023/09/08 04:43:40;;;;;;;11.50;7.40;;;17.30;72.00;;;;;;5087256;28;20564;-77
2023/09/08 04:46:09;;;;;;;11.07;7.23;;;17.30;72.00;;;;;;5088537;28;21002;-76
2023/09/08 04:48:39;;;;;;;12.03;7.60;;;17.30;72.00;;;;;;5089345;28;20895;-77
2023/09/08 04:51:09;;;;;;;9.67;6.77;;;17.30;72.00;;;;;;5091260;28;20793;-75
2023/09/08 04:53:37;;;;;;;12.33;7.50;;;17.30;72.00;;;;;;5107582;27;20467;-77
2023/09/08 04:56:08;;;;;;;13.60;7.53;;;17.30;71.90;;;;;;5087932;28;20465;-78
2023/09/08 04:58:36;;;;;;;10.23;6.97;;;17.30;71.90;;;;;;5089996;28;20456;-77
2023/09/08 05:01:05;;;;;;;12.30;7.83;;;17.30;71.80;;;;;;5102116;28;20551;-79
2023/09/08 05:03:33;;;;;;;12.40;8.37;;;17.20;71.80;;;;;;5088578;28;20464;-76
2023/09/08 05:06:03;;;;;;;11.53;7.20;;;17.20;71.90;;;;;;5090105;28;20801;-76
2023/09/08 05:08:31;;;;;;;10.53;7.37;;;17.20;72.00;;;;;;5089145;28;20505;-75
2023/09/08 05:10:59;;;;;;;10.00;7.10;;;17.20;71.90;;;;;;5090791;28;20883;-75
2023/09/08 05:13:28;;;;;;;11.43;7.83;;;17.20;71.90;;;;;;5089408;28;20830;-78
2023/09/08 05:16:10;;;;;;;13.13;7.77;;;17.10;71.90;;;;;;5104888;28;20800;-78
2023/09/08 05:18:42;;;;;;;12.57;8.00;;;17.10;72.30;;;;;;5108500;27;20468;-76
2023/09/08 05:21:14;;;;;;;12.20;7.87;;;17.30;72.30;;;;;;5082242;28;20448;-76
2023/09/08 05:23:42;;;;;;;10.37;7.70;;;17.30;72.10;;;;;;5088035;28;20452;-76
2023/09/08 05:26:11;;;;;;;11.33;7.63;;;17.30;72.00;;;;;;5090019;28;21005;-77
2023/09/08 05:28:39;;;;;;;10.17;7.40;;;17.30;72.00;;;;;;5088846;28;20543;-77
2023/09/08 05:31:11;;;;;;;10.90;7.83;;;17.30;72.00;;;;;;5084822;28;20472;-76
2023/09/08 05:33:39;;;;;;;15.23;8.83;;;17.30;72.00;;;;;;5087073;28;20463;-76
2023/09/08 05:36:08;;;;;;;11.90;7.63;;;17.30;72.10;;;;;;5090607;28;21063;-77
2023/09/08 05:38:37;;;;;;;12.67;8.27;;;17.40;72.10;;;;;;5109017;28;20480;-78
2023/09/08 05:41:05;;;;;;;20.47;9.00;;;17.40;72.20;;;;;;5089051;28;20456;-78
2023/09/08 05:43:33;;;;;;;21.83;8.77;;;17.40;72.20;;;;;;5107204;28;20456;-77
2023/09/08 05:46:10;;;;;;;13.00;7.87;;;17.40;72.20;;;;;;5086120;28;20502;-77
2023/09/08 05:48:39;;;;;;;14.03;8.53;;;17.30;72.40;;;;;;5106003;28;20712;-78
2023/09/08 05:51:07;;;;;;;10.60;7.60;;;17.30;72.40;;;;;;5089977;28;20455;-78
2023/09/08 05:53:39;;;;;;;12.20;8.97;;;17.30;72.60;;;;;;5090041;28;21204;-78
2023/09/08 05:56:08;;;;;;;12.40;8.50;;;17.30;72.70;;;;;;5092080;28;20456;-77
2023/09/08 05:58:36;;;;;;;16.63;8.40;;;17.30;72.80;;;;;;5093452;28;20463;-76
2023/09/08 06:01:05;;;;;;;12.70;9.40;;;17.30;73.00;;;;;;5094823;28;20475;-75
2023/09/08 06:03:34;;;;;;;16.90;9.20;;;17.30;73.20;;;;;;5093534;28;20905;-76
2023/09/08 06:06:02;;;;;;;14.97;9.20;;;17.40;73.30;;;;;;5096556;28;20993;-75
2023/09/08 06:08:30;;;;;;;15.20;9.90;;;17.40;73.50;;;;;;5094404;28;20444;-77
2023/09/08 06:11:00;;;;;;;16.80;8.07;;;17.50;73.70;;;;;;5091715;28;20451;-76
2023/09/08 06:13:28;;;;;;;13.17;8.03;;;17.60;73.80;;;;;;5093321;28;20470;-76
2023/09/08 06:15:56;;;;;;;14.73;8.37;;;17.60;73.70;;;;;;5092274;28;20540;-76
2023/09/08 06:18:24;;;;;;;12.43;8.00;;;17.70;73.80;;;;;;5093744;28;20460;-76
2023/09/08 06:20:53;;;;;;;13.20;8.07;;;17.80;73.90;;;;;;5094760;28;20450;-76
2023/09/08 06:23:21;;;;;;;13.70;9.53;;;17.80;73.90;;;;;;5093728;28;20459;-76
2023/09/08 06:25:51;;;;;;;14.67;9.37;;;17.90;74.00;;;;;;5090493;28;20969;-76
2023/09/08 06:28:21;;;;;;;13.50;9.63;;;18.00;74.10;;;;;;5095345;28;20464;-77
2023/09/08 06:30:49;;;;;;;14.40;9.23;;;18.00;74.20;;;;;;5085974;28;20993;-76
2023/09/08 06:33:17;;;;;;;13.43;9.13;;;18.10;74.20;;;;;;5108465;28;20539;-77
2023/09/08 06:35:46;;;;;;;12.73;8.60;;;18.10;74.40;;;;;;5093676;28;20466;-75
2023/09/08 06:38:16;;;;;;;19.90;10.20;;;18.20;74.50;;;;;;5112741;28;21006;-76
2023/09/08 06:40:44;;;;;;;13.43;10.10;;;18.20;74.70;;;;;;5094150;28;20496;-76
2023/09/08 06:43:12;;;;;;;13.80;9.00;;;18.30;74.80;;;;;;5108328;28;20459;-77
2023/09/08 06:45:59;;;;;;;13.67;9.10;;;18.30;74.80;;;;;;5091698;28;20459;-77
2023/09/08 06:48:27;;;;;;;13.10;9.17;;;18.40;74.90;;;;;;5110838;28;20922;-77
2023/09/08 06:50:56;;;;;;;14.67;10.20;;;18.40;75.00;;;;;;5094033;28;20961;-76
2023/09/08 06:53:25;;;;;;;15.07;10.37;;;18.50;75.10;;;;;;5089547;28;20456;-77
2023/09/08 06:55:53;;;;;;;11.93;9.23;;;18.60;75.20;;;;;;5093747;28;20500;-76
2023/09/08 06:58:21;;;;;;;14.70;10.07;;;18.60;75.30;;;;;;5093835;28;20450;-76
2023/09/08 07:00:54;;;;;;;12.77;9.60;;;18.70;75.40;;;;;;5091452;28;20533;-76
2023/09/08 07:03:23;;;;;;;11.03;7.53;;;18.70;75.50;;;;;;5108523;27;20455;-76
2023/09/08 07:05:53;;;;;;;14.77;10.40;;;18.70;75.60;;;;;;5093847;28;20443;-78
2023/09/08 07:08:23;;;;;;;13.53;9.37;;;18.80;75.70;;;;;;5092694;28;20480;-77
2023/09/08 07:10:53;;;;;;;13.07;9.33;;;18.90;75.80;;;;;;5092325;28;21140;-76
2023/09/08 07:13:21;;;;;;;14.70;8.80;;;19.00;75.90;;;;;;5092574;28;20466;-77
2023/09/08 07:15:49;;;;;;;14.20;9.20;;;19.10;75.80;;;;;;5092665;28;20465;-75
2023/09/08 07:18:18;;;;;;;15.50;8.90;;;19.10;75.80;;;;;;5093310;28;20464;-76
2023/09/08 07:20:48;;;;;;;11.30;8.60;;;19.20;75.90;;;;;;5087455;28;20441;-76
2023/09/08 07:23:18;;;;;;;12.40;8.57;;;19.30;75.90;;;;;;5090408;28;20468;-77
2023/09/08 07:25:47;;;;;;;11.63;8.50;;;19.40;75.90;;;;;;5092941;28;20783;-78
2023/09/08 07:28:17;;;;;;;9.83;7.17;;;19.50;75.90;;;;;;5093372;28;20981;-76
2023/09/08 07:30:45;;;;;;;14.23;8.27;;;19.50;75.90;;;;;;5091978;28;20575;-76
2023/09/08 07:33:22;;;;;;;12.70;7.70;;;19.60;75.90;;;;;;5090254;28;20468;-76
2023/09/08 07:35:51;;;;;;;13.10;8.27;;;19.70;75.90;;;;;;5093678;28;20480;-75
2023/09/08 07:38:19;;;;;;;12.63;7.20;;;19.70;75.80;;;;;;5092469;28;20455;-77
2023/09/08 07:40:47;;;;;;;11.70;8.07;;;19.80;75.70;;;;;;5110315;28;20551;-77
2023/09/08 07:43:15;;;;;;;18.90;8.87;;;19.90;75.70;;;;;;5104701;28;20474;-77
2023/09/08 07:45:44;;;;;;;15.97;8.67;;;20.00;75.60;;;;;;5109372;28;20533;-75
2023/09/08 07:48:12;;;;;;;15.90;7.20;;;20.00;75.60;;;;;;5107874;28;20503;-75
2023/09/08 07:50:41;;;;;;;11.73;7.57;;;20.10;75.60;;;;;;5114262;28;20468;-77
2023/09/08 07:53:09;;;;;;;14.00;8.50;;;20.20;75.50;;;;;;5109308;28;20467;-78
2023/09/08 07:55:37;;;;;;;10.90;8.13;;;20.30;75.50;;;;;;5111951;28;20467;-78
2023/09/08 07:58:05;;;;;;;11.97;7.47;;;20.30;75.40;;;;;;5104484;28;20504;-76
2023/09/08 08:00:33;;;;;;;12.90;8.30;;;20.40;75.40;;;;;;5090846;28;20460;-75
2023/09/08 08:03:01;;;;;;;14.13;8.13;;;20.50;75.20;;;;;;5108017;28;20452;-77
2023/09/08 08:05:29;;;;;;;13.03;7.67;;;20.50;75.20;;;;;;5110648;28;20539;-77
2023/09/08 08:07:59;;;;;;;9.53;7.10;;;20.60;75.20;;;;;;5106349;28;20455;-76
2023/09/08 08:10:28;;;;;;;21.33;7.17;;;20.70;75.10;;;;;;5088807;28;20899;-76
2023/09/08 08:12:56;;;;;;;12.63;7.90;;;20.80;74.80;;;;;;5089858;28;20458;-77
2023/09/08 08:15:35;;;;;;;10.47;7.10;;;20.80;74.70;;;;;;5109554;28;20562;-76
2023/09/08 08:18:03;;;;;;;11.83;7.27;;;20.90;74.60;;;;;;5109260;28;20547;-75
2023/09/08 08:20:34;;;;;;;12.67;8.07;;;21.00;74.60;;;;;;5091641;28;20462;-75
2023/09/08 08:23:04;;;;;;;10.30;6.80;;;21.00;74.40;;;;;;5110190;28;20444;-76
2023/09/08 08:25:32;;;;;;;14.20;7.63;;;21.10;74.30;;;;;;5108363;28;20452;-76
2023/09/08 08:28:01;;;;;;;11.00;6.53;;;21.20;74.20;;;;;;5110071;28;21006;-76
2023/09/08 08:30:29;;;;;;;10.80;6.60;;;21.20;74.00;;;;;;5109098;28;21024;-77
2023/09/08 08:32:57;;;;;;;12.57;6.93;;;21.30;73.90;;;;;;5109294;28;20447;-76
2023/09/08 08:35:26;;;;;;;10.40;7.83;;;21.40;73.70;;;;;;5106840;28;20476;-76
2023/09/08 08:37:54;;;;;;;10.00;7.00;;;21.50;73.60;;;;;;5091786;28;20463;-75
2023/09/08 08:40:26;;;;;;;12.13;7.90;;;21.60;73.50;;;;;;5109976;28;20466;-76
2023/09/08 08:42:56;;;;;;;10.40;6.77;;;21.60;73.20;;;;;;5107105;28;20499;-75
2023/09/08 08:45:30;;;;;;;10.80;6.90;;;21.70;73.10;;;;;;5108252;28;20976;-76
2023/09/08 08:47:59;;;;;;;15.93;8.17;;;21.80;72.90;;;;;;5109847;28;20459;-75
2023/09/08 08:50:27;;;;;;;16.20;7.20;;;21.90;72.70;;;;;;5109692;28;20541;-76
2023/09/08 08:52:55;;;;;;;10.23;7.13;;;21.90;72.50;;;;;;5106894;28;20459;-76
2023/09/08 08:55:26;;;;;;;9.97;6.97;;;22.00;72.40;;;;;;5108985;28;20471;-77
2023/09/08 08:57:55;;;;;;;11.80;5.80;;;22.10;72.20;;;;;;5084361;28;21049;-76
2023/09/08 09:00:23;;;;;;;8.67;6.07;;;22.20;72.00;;;;;;5090150;28;20448;-76
2023/09/08 09:02:51;;;;;;;14.73;6.60;;;22.30;71.80;;;;;;5108888;28;20543;-75
2023/09/08 09:05:40;;;;;;;18.07;7.50;;;22.30;71.40;;;;;;5090033;28;20542;-79
2023/09/08 09:08:14;;;;;;;12.03;5.73;;;22.40;71.30;;;;;;5109054;28;20492;-76
2023/09/08 09:10:43;;;;;;;10.10;6.23;;;22.60;70.70;;;;;;5090570;28;20467;-75
2023/09/08 09:13:11;;;;;;;9.67;5.87;;;22.70;70.00;;;;;;5108224;28;20877;-76
2023/09/08 09:15:40;;;;;;;13.73;6.30;;;22.80;69.10;;;;;;5108945;28;20476;-76
2023/09/08 09:18:09;;;;;;;10.47;6.10;;;22.90;68.90;;;;;;5107005;28;20448;-76
2023/09/08 09:20:37;;;;;;;10.40;6.00;;;22.90;68.30;;;;;;5108210;28;20447;-75
2023/09/08 09:23:05;;;;;;;11.73;5.70;;;23.00;68.00;;;;;;5105148;28;20447;-76
2023/09/08 09:25:33;;;;;;;9.10;6.00;;;23.10;67.70;;;;;;5106325;28;20472;-75
2023/09/08 09:28:04;;;;;;;8.60;6.13;;;23.20;67.60;;;;;;5107778;28;20452;-78
2023/09/08 09:30:48;;;;;;;9.17;6.47;;;23.20;67.50;;;;;;5105754;28;20536;-77
2023/09/08 09:33:16;;;;;;;9.27;5.93;;;23.20;67.30;;;;;;5107905;28;20448;-76
2023/09/08 09:35:46;;;;;;;9.77;6.13;;;23.20;67.20;;;;;;5109186;28;20471;-76
2023/09/08 09:38:14;;;;;;;14.07;6.77;;;23.30;66.90;;;;;;5090416;28;20950;-77
2023/09/08 09:40:42;;;;;;;8.90;6.27;;;23.30;66.70;;;;;;5106052;28;20798;-77
2023/09/08 09:43:12;;;;;;;10.50;6.13;;;23.30;66.50;;;;;;5089811;28;20459;-78
2023/09/08 09:45:42;;;;;;;10.33;5.90;;;23.40;66.40;;;;;;5108959;28;20479;-77
2023/09/08 09:48:11;;;;;;;9.33;6.13;;;23.50;66.20;;;;;;5090578;28;20483;-75
2023/09/08 09:50:41;;;;;;;9.17;5.70;;;23.50;66.10;;;;;;5105856;28;20447;-76
2023/09/08 09:53:10;;;;;;;13.27;7.33;;;23.60;65.80;;;;;;5089880;28;20468;-77
2023/09/08 09:55:40;;;;;;;9.43;6.13;;;23.60;65.70;;;;;;5090420;28;20456;-77
2023/09/08 09:58:11;;;;;;;10.70;6.20;;;23.70;65.70;;;;;;5109304;28;20491;-76
2023/09/08 10:00:41;;;;;;;10.30;6.60;;;23.70;65.70;;;;;;5102615;28;21026;-76
2023/09/08 10:03:11;;;;;;;9.23;6.37;;;23.80;65.60;;;;;;5066106;28;21012;-79
2023/09/08 10:05:39;;;;;;;9.00;5.20;;;23.80;65.60;;;;;;5087812;28;20449;-78
2023/09/08 10:08:07;;;;;;;8.93;5.43;;;23.90;65.50;;;;;;5086323;28;20455;-77
2023/09/08 10:10:36;;;;;;;17.30;5.80;;;24.00;65.00;;;;;;5075249;28;20532;-78
2023/09/08 10:13:07;;;;;;;11.87;6.73;;;24.00;64.90;;;;;;5089655;28;20452;-77
2023/09/08 10:15:38;;;;;;;16.43;6.00;;;24.10;64.50;;;;;;5086066;28;20529;-77
2023/09/08 10:18:07;;;;;;;12.10;6.43;;;24.20;64.30;;;;;;5089255;28;20842;-78
2023/09/08 10:20:37;;;;;;;10.27;6.40;;;24.20;64.30;;;;;;5085905;28;20462;-77
2023/09/08 10:23:09;;;;;;;12.20;6.10;;;24.20;64.10;;;;;;5088148;28;20961;-77
2023/09/08 10:25:44;;;;;;;9.57;6.30;;;24.30;63.90;;;;;;5086733;28;20454;-77
2023/09/08 10:28:14;;;;;;;8.80;5.53;;;24.30;63.70;;;;;;5069695;28;20532;-79
2023/09/08 10:30:44;;;;;;;12.43;6.37;;;24.40;63.50;;;;;;5085367;28;20472;-76
2023/09/08 10:33:13;;;;;;;10.10;6.13;;;24.40;63.10;;;;;;5080512;28;20495;-77
2023/09/08 10:35:42;;;;;;;8.97;6.07;;;24.50;62.90;;;;;;5085581;28;20547;-77
2023/09/08 10:38:26;;;;;;;12.40;6.10;;;24.60;62.90;;;;;;5088108;28;20540;-77
2023/09/08 10:41:14;;;;;;;10.57;6.37;;;24.70;62.50;;;;;;5085316;28;21041;-77
2023/09/08 10:43:45;;;;;;;12.80;5.70;;;24.70;62.60;;;;;;5071274;28;20822;-78
2023/09/08 10:46:23;;;;;;;10.10;5.20;;;24.80;62.60;;;;;;5090621;28;20461;-77
2023/09/08 10:48:53;;;;;;;9.73;6.57;;;24.90;62.30;;;;;;5090041;28;21006;-76
2023/09/08 10:51:23;;;;;;;10.10;5.97;;;25.00;62.30;;;;;;5087432;28;20469;-77
2023/09/08 10:53:51;;;;;;;10.63;6.33;;;25.00;62.30;;;;;;5088579;28;20490;-77
2023/09/08 10:56:19;;;;;;;10.63;6.17;;;25.10;62.20;;;;;;5090502;28;20480;-76
2023/09/08 10:58:51;;;;;;;9.70;5.60;;;25.10;62.00;;;;;;5090375;28;20554;-76
2023/09/08 11:01:22;;;;;;;10.30;6.27;;;25.20;61.70;;;;;;5070229;28;20474;-77
2023/09/08 11:03:51;;;;;;;9.20;5.73;;;25.30;61.50;;;;;;5089429;28;20560;-77
2023/09/08 11:06:22;;;;;;;16.00;6.37;;;25.30;61.30;;;;;;5087435;28;20873;-76
2023/09/08 11:08:52;;;;;;;11.37;6.17;;;25.40;60.90;;;;;;5089342;28;20526;-79
2023/09/08 11:11:21;;;;;;;12.83;6.30;;;25.40;60.80;;;;;;5087784;28;20457;-78
2023/09/08 11:13:49;;;;;;;9.13;5.63;;;25.50;60.70;;;;;;5086665;28;21898;-76
2023/09/08 11:16:29;;;;;;;10.50;5.10;;;25.60;60.50;;;;;;5085648;28;20463;-78
2023/09/08 11:18:57;;;;;;;11.10;5.50;;;25.60;60.20;;;;;;5086857;28;20464;-75
2023/09/08 11:21:25;;;;;;;9.37;5.77;;;25.70;60.00;;;;;;5087695;28;20963;-78
2023/09/08 11:23:53;;;;;;;10.53;5.60;;;25.80;59.70;;;;;;5087952;28;20452;-76
2023/09/08 11:26:22;;;;;;;8.97;5.80;;;25.80;59.50;;;;;;5071153;28;21414;-79
2023/09/08 11:28:50;;;;;;;9.50;5.13;;;25.90;59.20;;;;;;5086574;28;20465;-77
2023/09/08 11:31:20;;;;;;;11.50;5.10;;;25.90;59.00;;;;;;5086438;28;20493;-76
2023/09/08 11:33:50;;;;;;;8.93;5.40;;;26.00;58.90;;;;;;5088809;28;20487;-76
2023/09/08 11:36:19;;;;;;;10.03;5.60;;;26.00;58.80;;;;;;5093102;28;20456;-77
2023/09/08 11:38:47;;;;;;;8.77;5.60;;;26.00;58.70;;;;;;5090371;28;20453;-78
2023/09/08 11:41:15;;;;;;;8.23;5.00;;;26.00;58.50;;;;;;5089745;28;20543;-78
2023/09/08 11:43:43;;;;;;;10.33;5.33;;;26.10;58.50;;;;;;5088798;28;20499;-78
2023/09/08 11:46:13;;;;;;;8.73;5.00;;;26.10;58.30;;;;;;5085275;28;20463;-76
2023/09/08 11:48:42;;;;;;;9.07;5.47;;;26.20;58.10;;;;;;5084472;28;20821;-79
2023/09/08 11:51:11;;;;;;;7.93;5.40;;;26.30;57.90;;;;;;5089784;28;20464;-80
2023/09/08 11:53:39;;;;;;;10.63;4.80;;;26.30;57.80;;;;;;5087837;28;20449;-78
2023/09/08 11:56:08;;;;;;;13.50;5.53;;;26.40;57.70;;;;;;5089220;28;20457;-78
2023/09/08 11:58:38;;;;;;;8.00;4.87;;;26.40;57.70;;;;;;5088305;28;20484;-78
2023/09/08 12:01:06;;;;;;;11.43;5.97;;;26.40;57.50;;;;;;5083504;28;20467;-78
2023/09/08 12:03:34;;;;;;;8.30;5.37;;;26.40;57.60;;;;;;5088431;28;20814;-79
2023/09/08 12:06:04;;;;;;;11.00;5.60;;;26.40;57.60;;;;;;5089482;28;20790;-79
2023/09/08 12:08:32;;;;;;;8.43;5.00;;;26.50;57.60;;;;;;5086884;28;20460;-79
2023/09/08 12:11:01;;;;;;;9.53;5.70;;;26.50;57.40;;;;;;5086447;28;20452;-79
2023/09/08 12:13:29;;;;;;;8.03;4.90;;;26.60;57.10;;;;;;5083376;28;20497;-79
2023/09/08 12:15:57;;;;;;;8.50;5.30;;;26.60;57.00;;;;;;5087680;28;20884;-80
2023/09/08 12:18:39;;;;;;;9.03;5.00;;;26.60;57.00;;;;;;5084535;28;20468;-80
2023/09/08 12:21:09;;;;;;;10.70;4.63;;;26.70;56.80;;;;;;5069508;28;20934;-78
2023/09/08 12:23:49;;;;;;;8.00;5.40;;;26.70;56.90;;;;;;5083587;28;20828;-80
2023/09/08 12:26:17;;;;;;;8.80;5.00;;;26.70;56.80;;;;;;5083628;28;20460;-78
2023/09/08 12:28:46;;;;;;;8.87;5.50;;;26.80;56.80;;;;;;5084205;28;20452;-79
2023/09/08 12:31:15;;;;;;;8.03;4.70;;;26.80;56.50;;;;;;5085176;28;21034;-78
2023/09/08 12:33:43;;;;;;;10.77;5.47;;;26.80;56.40;;;;;;5084134;28;21252;-76
2023/09/08 12:36:14;;;;;;;10.53;5.20;;;26.90;56.30;;;;;;5089350;28;20841;-79
2023/09/08 12:38:42;;;;;;;8.20;5.03;;;26.90;56.10;;;;;;5085323;28;20477;-78
2023/09/08 12:41:10;;;;;;;8.20;5.30;;;26.90;56.00;;;;;;5084471;28;20464;-78
2023/09/08 12:43:38;;;;;;;12.50;5.67;;;26.90;56.10;;;;;;5086100;28;20814;-78
2023/09/08 12:46:06;;;;;;;8.00;4.90;;;27.00;55.90;;;;;;5086696;28;20460;-76
2023/09/08 12:48:34;;;;;;;7.90;4.47;;;27.10;55.80;;;;;;5086052;28;20451;-79